Terminal Aerodrome Forecast
Issued by NWS Bismarck, ND

Home | Current Version | Previous Version | Text Only | Print | Product List | Glossary On
Versions: 1 2 3 4 5 6 7 8 9 10 11 12 13 14 15 16 17 18 19 20 21 22 23 24 25 26 27 28 29 30 31
369
FTUS43 KBIS 040902 AAA
TAFBIS
TAF AMD
KBIS 040902Z 0409/0506 25006KT P6SM OVC050
      TEMPO 0409/0411 BKN025
     FM041700 27007KT P6SM SCT200
     FM050200 18006KT P6SM BKN200=

USA.gov is the U.S. government's official web portal to all federal, state and local government web resources and services.